Terminal Aerodrome Forecast
Issued by NWS

Home | Current Version | Previous Version | Text Only | Print | Product List | Glossary Off
Versions: 1 2 3 4 5 6 7 8 9 10 11 12

000
FTUS43 KIWX 191725
TAFSBN
TAF
KSBN 191725Z 1918/2018 29012G21KT P6SM BKN030
     FM192100 29012G21KT P6SM SCT045
     FM200000 27008KT P6SM SCT250
     FM201300 21010KT P6SM FEW250
     FM201600 21012G22KT P6SM FEW250=

USA.gov is the U.S. government's official web portal to all federal, state and local government web resources and services.